Stamford, NY (12167)

6:28 AM EDT on August 04, 2015 (GMT -0400)
Stamford Central School | | Change Station
CLOSE
Current Station
Personal Weather Station
Location: Stamford, NY
Elevation: 1804 ft
Nearby Weather Stations

Elev 1804 ft 42.41 °N, 74.62 °W | Updated 4 minutes ago

Overcast
Overcast
57.8 °F
Feels Like 57.8 °F
N
0.0
Wind Variable Wind from SSE

Today
High -- | Low -- °F
--% Chance of Precip.
Yesterday
High -- | Low -- °F
Precip. -- in
5:53 AM 8:14 PM
Waning Gibbous, 79% visible
Pressure 29.84 in
Visibility 1.0 miles
Clouds Mostly Cloudy 300 ft
Mostly Cloudy 9000 ft
Overcast 24000 ft
Dew Point 56 °F
Humidity 94%
Rainfall 0.00 in
Snow Depth Not available.
UV 0.0 out of 12
Pollen 8.40 out of 12
Air Quality Not available.
Flu Activity Not available.
SPECI KALB 041001Z 00000KT 1SM R01/2000VP6000FT BR BKN003 BKN090 OVC240 19/18 A2984 RMK AO2 VIS SW-NW 1 3/4 T01940178 $

More Conditions Fewer Conditions

Pressure 29.84 in
Visibility 1.0 miles
Clouds Mostly Cloudy 300 ft
Mostly Cloudy 9000 ft
Overcast 24000 ft
Dew Point 56 °F
Humidity 94%
Rainfall 0.00 in
Snow Depth Not available.
UV 0.0 out of 12
Pollen 8.40 out of 12
Air Quality Not available.
Flu Activity Not available.
SPECI KALB 041001Z 00000KT 1SM R01/2000VP6000FT BR BKN003 BKN090 OVC240 19/18 A2984 RMK AO2 VIS SW-NW 1 3/4 T01940178 $

More Conditions Fewer Conditions

10-Day Weather Forecast

×

Almanac

Astronomy

Aug. 04, 2015 Rise Set
Actual Time
Civil Twilight
Nautical Twilight
Astronomical Twilight
Moon
Length of Visible Light
Length of Day
Tomorrow will be .
, % of the Moon is Illuminated

Today's Extremes

State Highs State Lows

Community

WunderPhotos

Upload Photos

1,843,883 photos uploaded!

WunderBlogs® & News

Nearby

Air Quality

  Air Quality AQ Index Pollutant
Not available.

Snow Depth

Station Depth Elevation

Earthquake Activity

City Distance Mag. Time & Date
Minimum magnitude displayed is 2.5.

Coastal Water Temperatures

Place Temperature

Stations

Nearby Weather Stations

Station Location Temp. Windchill Dew Point Humidity Wind Precip. Elev Updated Type